sensor_id;sensor_type;location;lat;lon;timestamp;P1;durP1;ratioP1;P2;durP2;ratioP2
11042;SDS011;5574;48.786;10.120;2022-11-20T00:00:16;4.53;;;3.73;;
11042;SDS011;5574;48.786;10.120;2022-11-20T00:02:43;3.53;;;3.23;;
11042;SDS011;5574;48.786;10.120;2022-11-20T00:05:10;3.67;;;3.37;;
11042;SDS011;5574;48.786;10.120;2022-11-20T00:07:37;5.40;;;3.83;;
11042;SDS011;5574;48.786;10.120;2022-11-20T00:10:05;3.60;;;3.27;;
11042;SDS011;5574;48.786;10.120;2022-11-20T00:12:32;3.50;;;3.20;;
11042;SDS011;5574;48.786;10.120;2022-11-20T00:14:59;3.90;;;3.47;;
11042;SDS011;5574;48.786;10.120;2022-11-20T00:17:25;3.77;;;3.40;;
11042;SDS011;5574;48.786;10.120;2022-11-20T00:19:52;3.20;;;3.00;;
11042;SDS011;5574;48.786;10.120;2022-11-20T00:22:19;3.93;;;3.33;;
11042;SDS011;5574;48.786;10.120;2022-11-20T00:24:46;3.97;;;3.60;;
11042;SDS011;5574;48.786;10.120;2022-11-20T00:27:14;3.93;;;3.50;;
11042;SDS011;5574;48.786;10.120;2022-11-20T00:29:40;4.30;;;2.83;;
11042;SDS011;5574;48.786;10.120;2022-11-20T00:32:07;3.33;;;3.00;;
11042;SDS011;5574;48.786;10.120;2022-11-20T00:34:34;3.77;;;3.30;;
11042;SDS011;5574;48.786;10.120;2022-11-20T00:37:00;3.27;;;2.97;;
11042;SDS011;5574;48.786;10.120;2022-11-20T00:39:27;3.80;;;3.50;;
11042;SDS011;5574;48.786;10.120;2022-11-20T00:41:54;3.80;;;3.20;;
11042;SDS011;5574;48.786;10.120;2022-11-20T00:44:22;4.57;;;3.13;;
11042;SDS011;5574;48.786;10.120;2022-11-20T00:46:49;3.87;;;3.10;;
11042;SDS011;5574;48.786;10.120;2022-11-20T00:49:15;5.03;;;3.43;;
11042;SDS011;5574;48.786;10.120;2022-11-20T00:51:42;4.77;;;3.20;;
11042;SDS011;5574;48.786;10.120;2022-11-20T00:54:09;3.20;;;2.77;;
11042;SDS011;5574;48.786;10.120;2022-11-20T00:56:36;3.33;;;3.03;;
11042;SDS011;5574;48.786;10.120;2022-11-20T00:59:02;3.20;;;3.00;;
11042;SDS011;5574;48.786;10.120;2022-11-20T01:01:31;4.23;;;3.07;;
11042;SDS011;5574;48.786;10.120;2022-11-20T01:03:58;3.93;;;3.27;;
11042;SDS011;5574;48.786;10.120;2022-11-20T01:06:26;4.27;;;3.43;;
11042;SDS011;5574;48.786;10.120;2022-11-20T01:08:55;4.23;;;3.70;;
11042;SDS011;5574;48.786;10.120;2022-11-20T01:11:26;3.30;;;3.10;;
11042;SDS011;5574;48.786;10.120;2022-11-20T01:13:56;3.20;;;2.90;;
11042;SDS011;5574;48.786;10.120;2022-11-20T01:16:25;3.17;;;2.97;;
11042;SDS011;5574;48.786;10.120;2022-11-20T01:18:55;4.07;;;3.43;;
11042;SDS011;5574;48.786;10.120;2022-11-20T01:21:24;4.00;;;2.90;;
11042;SDS011;5574;48.786;10.120;2022-11-20T01:23:52;2.83;;;2.63;;
11042;SDS011;5574;48.786;10.120;2022-11-20T01:26:20;3.03;;;2.83;;
11042;SDS011;5574;48.786;10.120;2022-11-20T01:28:48;3.27;;;2.97;;
11042;SDS011;5574;48.786;10.120;2022-11-20T01:31:17;3.23;;;2.93;;
11042;SDS011;5574;48.786;10.120;2022-11-20T01:33:46;3.40;;;2.90;;
11042;SDS011;5574;48.786;10.120;2022-11-20T01:36:15;3.50;;;2.80;;
11042;SDS011;5574;48.786;10.120;2022-11-20T01:38:43;3.53;;;2.97;;
11042;SDS011;5574;48.786;10.120;2022-11-20T01:41:10;3.23;;;2.73;;
11042;SDS011;5574;48.786;10.120;2022-11-20T01:43:58;3.13;;;2.83;;
11042;SDS011;5574;48.786;10.120;2022-11-20T01:46:24;3.20;;;2.63;;
11042;SDS011;5574;48.786;10.120;2022-11-20T01:48:52;3.10;;;2.80;;
11042;SDS011;5574;48.786;10.120;2022-11-20T01:51:26;4.13;;;2.77;;
11042;SDS011;5574;48.786;10.120;2022-11-20T01:53:55;3.40;;;3.10;;
11042;SDS011;5574;48.786;10.120;2022-11-20T01:56:26;3.07;;;2.77;;
11042;SDS011;5574;48.786;10.120;2022-11-20T01:58:58;3.33;;;2.60;;
11042;SDS011;5574;48.786;10.120;2022-11-20T02:01:27;2.77;;;2.57;;
11042;SDS011;5574;48.786;10.120;2022-11-20T02:03:54;2.57;;;2.37;;
11042;SDS011;5574;48.786;10.120;2022-11-20T02:06:23;2.93;;;2.63;;
11042;SDS011;5574;48.786;10.120;2022-11-20T02:08:53;2.67;;;2.40;;
11042;SDS011;5574;48.786;10.120;2022-11-20T02:11:20;3.60;;;2.50;;
11042;SDS011;5574;48.786;10.120;2022-11-20T02:13:47;3.80;;;2.83;;
11042;SDS011;5574;48.786;10.120;2022-11-20T02:16:19;2.60;;;2.40;;
11042;SDS011;5574;48.786;10.120;2022-11-20T02:18:48;2.50;;;2.30;;
11042;SDS011;5574;48.786;10.120;2022-11-20T02:21:21;3.23;;;2.53;;
11042;SDS011;5574;48.786;10.120;2022-11-20T02:23:58;2.77;;;2.53;;
11042;SDS011;5574;48.786;10.120;2022-11-20T02:26:27;2.63;;;2.30;;
11042;SDS011;5574;48.786;10.120;2022-11-20T02:28:56;3.50;;;2.60;;
11042;SDS011;5574;48.786;10.120;2022-11-20T02:31:23;3.40;;;2.50;;
11042;SDS011;5574;48.786;10.120;2022-11-20T02:33:53;2.47;;;2.27;;
11042;SDS011;5574;48.786;10.120;2022-11-20T02:36:21;2.60;;;2.40;;
11042;SDS011;5574;48.786;10.120;2022-11-20T02:38:49;2.20;;;2.00;;
11042;SDS011;5574;48.786;10.120;2022-11-20T02:41:17;4.27;;;2.20;;
11042;SDS011;5574;48.786;10.120;2022-11-20T02:43:44;2.50;;;2.30;;
11042;SDS011;5574;48.786;10.120;2022-11-20T02:46:11;2.90;;;2.17;;
11042;SDS011;5574;48.786;10.120;2022-11-20T02:48:38;2.70;;;2.50;;
11042;SDS011;5574;48.786;10.120;2022-11-20T02:51:05;2.53;;;2.30;;
11042;SDS011;5574;48.786;10.120;2022-11-20T02:53:31;2.37;;;2.17;;
11042;SDS011;5574;48.786;10.120;2022-11-20T02:55:58;2.27;;;2.10;;
11042;SDS011;5574;48.786;10.120;2022-11-20T02:58:26;2.73;;;2.23;;
11042;SDS011;5574;48.786;10.120;2022-11-20T03:00:53;3.17;;;2.17;;
11042;SDS011;5574;48.786;10.120;2022-11-20T03:03:19;2.50;;;2.30;;
11042;SDS011;5574;48.786;10.120;2022-11-20T03:05:46;2.20;;;2.00;;
11042;SDS011;5574;48.786;10.120;2022-11-20T03:08:13;2.10;;;1.90;;
11042;SDS011;5574;48.786;10.120;2022-11-20T03:10:39;3.50;;;1.90;;
11042;SDS011;5574;48.786;10.120;2022-11-20T03:13:06;2.23;;;2.03;;
11042;SDS011;5574;48.786;10.120;2022-11-20T03:15:36;1.93;;;1.83;;
11042;SDS011;5574;48.786;10.120;2022-11-20T03:18:03;2.00;;;1.80;;
11042;SDS011;5574;48.786;10.120;2022-11-20T03:20:31;2.53;;;2.00;;
11042;SDS011;5574;48.786;10.120;2022-11-20T03:22:58;1.80;;;1.70;;
11042;SDS011;5574;48.786;10.120;2022-11-20T03:25:25;2.13;;;1.93;;
11042;SDS011;5574;48.786;10.120;2022-11-20T03:27:52;2.10;;;1.90;;
11042;SDS011;5574;48.786;10.120;2022-11-20T03:30:19;2.50;;;1.97;;
11042;SDS011;5574;48.786;10.120;2022-11-20T03:32:47;2.20;;;1.80;;
11042;SDS011;5574;48.786;10.120;2022-11-20T03:35:14;2.17;;;1.97;;
11042;SDS011;5574;48.786;10.120;2022-11-20T03:37:41;2.20;;;2.10;;
11042;SDS011;5574;48.786;10.120;2022-11-20T03:40:08;2.40;;;1.70;;
11042;SDS011;5574;48.786;10.120;2022-11-20T03:42:35;3.13;;;1.90;;
11042;SDS011;5574;48.786;10.120;2022-11-20T03:45:11;1.90;;;1.80;;
11042;SDS011;5574;48.786;10.120;2022-11-20T03:47:38;2.00;;;1.90;;
11042;SDS011;5574;48.786;10.120;2022-11-20T03:50:07;1.90;;;1.80;;
11042;SDS011;5574;48.786;10.120;2022-11-20T03:52:34;2.73;;;2.00;;
11042;SDS011;5574;48.786;10.120;2022-11-20T03:55:01;4.00;;;1.87;;
11042;SDS011;5574;48.786;10.120;2022-11-20T03:57:27;1.90;;;1.80;;
11042;SDS011;5574;48.786;10.120;2022-11-20T03:59:54;3.00;;;1.90;;
11042;SDS011;5574;48.786;10.120;2022-11-20T04:02:21;2.40;;;2.20;;
11042;SDS011;5574;48.786;10.120;2022-11-20T04:04:47;2.23;;;2.03;;
11042;SDS011;5574;48.786;10.120;2022-11-20T04:07:15;1.83;;;1.73;;
11042;SDS011;5574;48.786;10.120;2022-11-20T04:09:42;2.97;;;2.00;;
11042;SDS011;5574;48.786;10.120;2022-11-20T04:12:09;2.10;;;1.90;;
11042;SDS011;5574;48.786;10.120;2022-11-20T04:14:35;2.50;;;1.70;;
11042;SDS011;5574;48.786;10.120;2022-11-20T04:17:03;2.00;;;1.90;;
11042;SDS011;5574;48.786;10.120;2022-11-20T04:19:29;1.70;;;1.60;;
11042;SDS011;5574;48.786;10.120;2022-11-20T04:21:56;1.90;;;1.80;;
11042;SDS011;5574;48.786;10.120;2022-11-20T04:24:24;2.00;;;1.90;;
11042;SDS011;5574;48.786;10.120;2022-11-20T04:26:52;2.10;;;1.90;;
11042;SDS011;5574;48.786;10.120;2022-11-20T04:29:18;2.77;;;1.90;;
11042;SDS011;5574;48.786;10.120;2022-11-20T04:31:45;1.93;;;1.83;;
11042;SDS011;5574;48.786;10.120;2022-11-20T04:34:12;2.47;;;2.27;;
11042;SDS011;5574;48.786;10.120;2022-11-20T04:36:38;2.10;;;1.90;;
11042;SDS011;5574;48.786;10.120;2022-11-20T04:39:05;1.97;;;1.70;;
11042;SDS011;5574;48.786;10.120;2022-11-20T04:41:34;1.90;;;1.80;;
11042;SDS011;5574;48.786;10.120;2022-11-20T04:44:02;1.80;;;1.70;;
11042;SDS011;5574;48.786;10.120;2022-11-20T04:46:31;4.17;;;2.03;;
11042;SDS011;5574;48.786;10.120;2022-11-20T04:49:00;1.80;;;1.70;;
11042;SDS011;5574;48.786;10.120;2022-11-20T04:51:27;1.90;;;1.80;;
11042;SDS011;5574;48.786;10.120;2022-11-20T04:53:54;1.90;;;1.80;;
11042;SDS011;5574;48.786;10.120;2022-11-20T04:56:20;2.10;;;1.90;;
11042;SDS011;5574;48.786;10.120;2022-11-20T04:58:48;3.93;;;2.10;;
11042;SDS011;5574;48.786;10.120;2022-11-20T05:01:16;1.93;;;1.83;;
11042;SDS011;5574;48.786;10.120;2022-11-20T05:03:44;2.10;;;2.00;;
11042;SDS011;5574;48.786;10.120;2022-11-20T05:06:12;2.23;;;2.00;;
11042;SDS011;5574;48.786;10.120;2022-11-20T05:08:40;2.10;;;1.90;;
11042;SDS011;5574;48.786;10.120;2022-11-20T05:11:08;2.33;;;2.17;;
11042;SDS011;5574;48.786;10.120;2022-11-20T05:13:39;3.03;;;1.80;;
11042;SDS011;5574;48.786;10.120;2022-11-20T05:16:09;2.73;;;1.80;;
11042;SDS011;5574;48.786;10.120;2022-11-20T05:18:37;2.20;;;2.00;;
11042;SDS011;5574;48.786;10.120;2022-11-20T05:21:04;2.10;;;2.00;;
11042;SDS011;5574;48.786;10.120;2022-11-20T05:23:32;2.63;;;2.20;;
11042;SDS011;5574;48.786;10.120;2022-11-20T05:25:59;2.00;;;1.90;;
11042;SDS011;5574;48.786;10.120;2022-11-20T05:28:27;2.40;;;2.20;;
11042;SDS011;5574;48.786;10.120;2022-11-20T05:30:55;1.83;;;1.73;;
11042;SDS011;5574;48.786;10.120;2022-11-20T05:33:23;2.80;;;2.17;;
11042;SDS011;5574;48.786;10.120;2022-11-20T05:35:50;2.00;;;1.90;;
11042;SDS011;5574;48.786;10.120;2022-11-20T05:38:16;2.27;;;2.17;;
11042;SDS011;5574;48.786;10.120;2022-11-20T05:40:43;2.40;;;2.20;;
11042;SDS011;5574;48.786;10.120;2022-11-20T05:43:10;2.33;;;2.00;;
11042;SDS011;5574;48.786;10.120;2022-11-20T05:45:36;2.63;;;1.90;;
11042;SDS011;5574;48.786;10.120;2022-11-20T05:48:03;2.23;;;2.03;;
11042;SDS011;5574;48.786;10.120;2022-11-20T05:50:31;1.90;;;1.80;;
11042;SDS011;5574;48.786;10.120;2022-11-20T05:52:58;1.97;;;1.87;;
11042;SDS011;5574;48.786;10.120;2022-11-20T05:55:25;1.90;;;1.80;;
11042;SDS011;5574;48.786;10.120;2022-11-20T05:57:52;1.87;;;1.60;;
11042;SDS011;5574;48.786;10.120;2022-11-20T06:00:20;1.87;;;1.70;;
11042;SDS011;5574;48.786;10.120;2022-11-20T06:02:47;1.70;;;1.60;;
11042;SDS011;5574;48.786;10.120;2022-11-20T06:05:13;1.80;;;1.70;;
11042;SDS011;5574;48.786;10.120;2022-11-20T06:07:41;1.77;;;1.67;;
11042;SDS011;5574;48.786;10.120;2022-11-20T06:10:08;2.17;;;1.97;;
11042;SDS011;5574;48.786;10.120;2022-11-20T06:12:35;2.30;;;2.10;;
11042;SDS011;5574;48.786;10.120;2022-11-20T06:15:02;1.87;;;1.70;;
11042;SDS011;5574;48.786;10.120;2022-11-20T06:17:30;1.70;;;1.60;;
11042;SDS011;5574;48.786;10.120;2022-11-20T06:19:56;1.77;;;1.63;;
11042;SDS011;5574;48.786;10.120;2022-11-20T06:22:23;1.70;;;1.60;;
11042;SDS011;5574;48.786;10.120;2022-11-20T06:24:51;1.90;;;1.80;;
11042;SDS011;5574;48.786;10.120;2022-11-20T06:27:18;2.70;;;1.70;;
11042;SDS011;5574;48.786;10.120;2022-11-20T06:29:44;1.80;;;1.70;;
11042;SDS011;5574;48.786;10.120;2022-11-20T06:32:12;1.63;;;1.53;;
11042;SDS011;5574;48.786;10.120;2022-11-20T06:34:38;1.70;;;1.60;;
11042;SDS011;5574;48.786;10.120;2022-11-20T06:37:05;2.73;;;1.93;;
11042;SDS011;5574;48.786;10.120;2022-11-20T06:39:32;1.67;;;1.57;;
11042;SDS011;5574;48.786;10.120;2022-11-20T06:42:00;1.60;;;1.50;;
11042;SDS011;5574;48.786;10.120;2022-11-20T06:44:26;1.97;;;1.70;;
11042;SDS011;5574;48.786;10.120;2022-11-20T06:46:53;1.70;;;1.60;;
11042;SDS011;5574;48.786;10.120;2022-11-20T06:49:20;2.10;;;2.00;;
11042;SDS011;5574;48.786;10.120;2022-11-20T06:51:46;1.67;;;1.57;;
11042;SDS011;5574;48.786;10.120;2022-11-20T06:54:13;2.27;;;1.80;;
11042;SDS011;5574;48.786;10.120;2022-11-20T06:56:40;4.40;;;1.97;;
11042;SDS011;5574;48.786;10.120;2022-11-20T06:59:08;2.67;;;2.00;;
11042;SDS011;5574;48.786;10.120;2022-11-20T07:01:35;1.90;;;1.80;;
11042;SDS011;5574;48.786;10.120;2022-11-20T07:04:02;1.80;;;1.70;;
11042;SDS011;5574;48.786;10.120;2022-11-20T07:06:28;2.13;;;1.43;;
11042;SDS011;5574;48.786;10.120;2022-11-20T07:08:55;2.53;;;2.00;;
11042;SDS011;5574;48.786;10.120;2022-11-20T07:11:22;1.77;;;1.67;;
11042;SDS011;5574;48.786;10.120;2022-11-20T07:13:49;1.97;;;1.70;;
11042;SDS011;5574;48.786;10.120;2022-11-20T07:16:17;1.80;;;1.70;;
11042;SDS011;5574;48.786;10.120;2022-11-20T07:18:44;2.00;;;1.90;;
11042;SDS011;5574;48.786;10.120;2022-11-20T07:21:10;1.63;;;1.53;;
11042;SDS011;5574;48.786;10.120;2022-11-20T07:23:37;1.97;;;1.80;;
11042;SDS011;5574;48.786;10.120;2022-11-20T07:26:04;1.77;;;1.67;;
11042;SDS011;5574;48.786;10.120;2022-11-20T07:28:32;2.00;;;1.80;;
11042;SDS011;5574;48.786;10.120;2022-11-20T07:30:59;1.63;;;1.53;;
11042;SDS011;5574;48.786;10.120;2022-11-20T07:33:28;1.70;;;1.60;;
11042;SDS011;5574;48.786;10.120;2022-11-20T07:35:55;1.57;;;1.47;;
11042;SDS011;5574;48.786;10.120;2022-11-20T07:38:24;1.87;;;1.77;;
11042;SDS011;5574;48.786;10.120;2022-11-20T07:40:53;1.90;;;1.63;;
11042;SDS011;5574;48.786;10.120;2022-11-20T07:43:19;1.77;;;1.67;;
11042;SDS011;5574;48.786;10.120;2022-11-20T07:45:46;1.60;;;1.50;;
11042;SDS011;5574;48.786;10.120;2022-11-20T07:48:13;2.13;;;1.73;;
11042;SDS011;5574;48.786;10.120;2022-11-20T07:50:41;1.73;;;1.60;;
11042;SDS011;5574;48.786;10.120;2022-11-20T07:53:08;2.33;;;1.80;;
11042;SDS011;5574;48.786;10.120;2022-11-20T07:55:34;1.97;;;1.87;;
11042;SDS011;5574;48.786;10.120;2022-11-20T07:58:01;1.50;;;1.40;;
11042;SDS011;5574;48.786;10.120;2022-11-20T08:00:28;1.60;;;1.50;;
11042;SDS011;5574;48.786;10.120;2022-11-20T08:02:54;1.80;;;1.47;;
11042;SDS011;5574;48.786;10.120;2022-11-20T08:05:21;1.83;;;1.73;;
11042;SDS011;5574;48.786;10.120;2022-11-20T08:07:50;1.50;;;1.43;;
11042;SDS011;5574;48.786;10.120;2022-11-20T08:10:17;1.70;;;1.60;;
11042;SDS011;5574;48.786;10.120;2022-11-20T08:12:44;2.23;;;1.60;;
11042;SDS011;5574;48.786;10.120;2022-11-20T08:15:29;1.73;;;1.63;;
11042;SDS011;5574;48.786;10.120;2022-11-20T08:18:00;1.40;;;1.30;;
11042;SDS011;5574;48.786;10.120;2022-11-20T08:20:27;1.50;;;1.40;;
11042;SDS011;5574;48.786;10.120;2022-11-20T08:22:58;2.03;;;1.63;;
11042;SDS011;5574;48.786;10.120;2022-11-20T08:25:26;1.53;;;1.43;;
11042;SDS011;5574;48.786;10.120;2022-11-20T08:27:53;1.43;;;1.33;;
11042;SDS011;5574;48.786;10.120;2022-11-20T08:30:20;1.63;;;1.40;;
11042;SDS011;5574;48.786;10.120;2022-11-20T08:32:46;1.70;;;1.60;;
11042;SDS011;5574;48.786;10.120;2022-11-20T08:35:13;1.57;;;1.47;;
11042;SDS011;5574;48.786;10.120;2022-11-20T08:37:40;1.67;;;1.57;;
11042;SDS011;5574;48.786;10.120;2022-11-20T08:40:10;2.50;;;1.40;;
11042;SDS011;5574;48.786;10.120;2022-11-20T08:42:45;1.50;;;1.40;;
11042;SDS011;5574;48.786;10.120;2022-11-20T08:45:12;1.70;;;1.60;;
11042;SDS011;5574;48.786;10.120;2022-11-20T08:47:39;1.43;;;1.33;;
11042;SDS011;5574;48.786;10.120;2022-11-20T08:50:06;1.87;;;1.40;;
11042;SDS011;5574;48.786;10.120;2022-11-20T08:52:33;1.70;;;1.60;;
11042;SDS011;5574;48.786;10.120;2022-11-20T08:55:00;1.40;;;1.30;;
11042;SDS011;5574;48.786;10.120;2022-11-20T08:57:28;1.20;;;1.20;;
11042;SDS011;5574;48.786;10.120;2022-11-20T08:59:57;1.73;;;1.30;;
11042;SDS011;5574;48.786;10.120;2022-11-20T09:02:24;1.53;;;1.43;;
11042;SDS011;5574;48.786;10.120;2022-11-20T09:04:51;1.87;;;1.20;;
11042;SDS011;5574;48.786;10.120;2022-11-20T09:07:18;1.40;;;1.10;;
11042;SDS011;5574;48.786;10.120;2022-11-20T09:09:45;2.17;;;1.80;;
11042;SDS011;5574;48.786;10.120;2022-11-20T09:12:12;1.37;;;1.10;;
11042;SDS011;5574;48.786;10.120;2022-11-20T09:14:41;1.40;;;1.30;;
11042;SDS011;5574;48.786;10.120;2022-11-20T09:17:09;1.30;;;1.20;;
11042;SDS011;5574;48.786;10.120;2022-11-20T09:19:38;1.30;;;1.20;;
11042;SDS011;5574;48.786;10.120;2022-11-20T09:22:05;1.10;;;1.00;;
11042;SDS011;5574;48.786;10.120;2022-11-20T09:24:31;1.10;;;1.10;;
11042;SDS011;5574;48.786;10.120;2022-11-20T09:27:00;1.00;;;1.00;;
11042;SDS011;5574;48.786;10.120;2022-11-20T09:29:28;1.40;;;1.30;;
11042;SDS011;5574;48.786;10.120;2022-11-20T09:31:56;1.40;;;1.30;;
11042;SDS011;5574;48.786;10.120;2022-11-20T09:34:23;2.10;;;1.70;;
11042;SDS011;5574;48.786;10.120;2022-11-20T09:36:49;1.80;;;1.47;;
11042;SDS011;5574;48.786;10.120;2022-11-20T09:39:16;1.60;;;1.50;;
11042;SDS011;5574;48.786;10.120;2022-11-20T09:44:34;1.17;;;1.07;;
11042;SDS011;5574;48.786;10.120;2022-11-20T09:47:16;1.00;;;1.00;;
11042;SDS011;5574;48.786;10.120;2022-11-20T09:49:55;1.50;;;1.40;;
11042;SDS011;5574;48.786;10.120;2022-11-20T09:52:30;1.30;;;1.20;;
11042;SDS011;5574;48.786;10.120;2022-11-20T09:55:06;0.93;;;0.93;;
11042;SDS011;5574;48.786;10.120;2022-11-20T09:57:36;1.10;;;1.10;;
11042;SDS011;5574;48.786;10.120;2022-11-20T10:00:09;1.27;;;1.17;;
11042;SDS011;5574;48.786;10.120;2022-11-20T10:02:40;1.10;;;1.10;;
11042;SDS011;5574;48.786;10.120;2022-11-20T10:05:11;0.90;;;0.90;;
11042;SDS011;5574;48.786;10.120;2022-11-20T10:07:43;1.30;;;1.20;;
11042;SDS011;5574;48.786;10.120;2022-11-20T10:10:15;1.40;;;1.30;;
11042;SDS011;5574;48.786;10.120;2022-11-20T10:12:49;1.20;;;1.20;;
11042;SDS011;5574;48.786;10.120;2022-11-20T10:15:28;0.90;;;0.90;;
11042;SDS011;5574;48.786;10.120;2022-11-20T10:18:11;0.70;;;0.70;;
11042;SDS011;5574;48.786;10.120;2022-11-20T10:20:48;1.03;;;0.97;;
11042;SDS011;5574;48.786;10.120;2022-11-20T10:23:27;1.03;;;1.00;;
11042;SDS011;5574;48.786;10.120;2022-11-20T10:26:12;1.00;;;0.90;;
11042;SDS011;5574;48.786;10.120;2022-11-20T10:28:54;0.93;;;0.80;;
11042;SDS011;5574;48.786;10.120;2022-11-20T10:31:31;0.90;;;0.90;;
11042;SDS011;5574;48.786;10.120;2022-11-20T10:34:04;1.90;;;0.90;;
11042;SDS011;5574;48.786;10.120;2022-11-20T10:36:34;1.10;;;0.90;;
11042;SDS011;5574;48.786;10.120;2022-11-20T10:39:07;0.80;;;0.80;;
11042;SDS011;5574;48.786;10.120;2022-11-20T10:41:42;1.60;;;1.10;;
11042;SDS011;5574;48.786;10.120;2022-11-20T10:44:14;1.27;;;1.20;;
11042;SDS011;5574;48.786;10.120;2022-11-20T10:47:04;1.60;;;1.50;;
11042;SDS011;5574;48.786;10.120;2022-11-20T10:49:36;0.90;;;0.90;;
11042;SDS011;5574;48.786;10.120;2022-11-20T10:52:04;1.83;;;1.13;;
11042;SDS011;5574;48.786;10.120;2022-11-20T10:54:39;1.70;;;1.13;;
11042;SDS011;5574;48.786;10.120;2022-11-20T10:57:17;1.20;;;1.17;;
11042;SDS011;5574;48.786;10.120;2022-11-20T10:59:56;1.10;;;1.00;;
11042;SDS011;5574;48.786;10.120;2022-11-20T11:02:31;1.00;;;1.00;;
11042;SDS011;5574;48.786;10.120;2022-11-20T11:05:04;1.10;;;1.10;;
11042;SDS011;5574;48.786;10.120;2022-11-20T11:07:38;0.90;;;0.90;;
11042;SDS011;5574;48.786;10.120;2022-11-20T11:10:12;1.00;;;1.00;;
11042;SDS011;5574;48.786;10.120;2022-11-20T11:12:42;1.23;;;1.17;;
11042;SDS011;5574;48.786;10.120;2022-11-20T11:15:11;1.17;;;1.10;;
11042;SDS011;5574;48.786;10.120;2022-11-20T11:17:46;1.10;;;1.10;;
11042;SDS011;5574;48.786;10.120;2022-11-20T11:20:16;1.23;;;1.07;;
11042;SDS011;5574;48.786;10.120;2022-11-20T11:22:44;1.03;;;1.03;;
11042;SDS011;5574;48.786;10.120;2022-11-20T11:25:26;1.10;;;1.10;;
11042;SDS011;5574;48.786;10.120;2022-11-20T11:27:56;0.90;;;0.90;;
11042;SDS011;5574;48.786;10.120;2022-11-20T11:30:25;0.70;;;0.70;;
11042;SDS011;5574;48.786;10.120;2022-11-20T11:33:04;0.80;;;0.80;;
11042;SDS011;5574;48.786;10.120;2022-11-20T11:35:33;0.80;;;0.80;;
11042;SDS011;5574;48.786;10.120;2022-11-20T11:38:11;0.93;;;0.93;;
11042;SDS011;5574;48.786;10.120;2022-11-20T11:40:40;0.70;;;0.70;;
11042;SDS011;5574;48.786;10.120;2022-11-20T11:43:16;0.50;;;0.50;;
11042;SDS011;5574;48.786;10.120;2022-11-20T11:46:04;0.60;;;0.60;;
11042;SDS011;5574;48.786;10.120;2022-11-20T11:48:54;1.80;;;1.70;;
11042;SDS011;5574;48.786;10.120;2022-11-20T11:51:23;2.20;;;2.10;;
11042;SDS011;5574;48.786;10.120;2022-11-20T11:53:54;2.23;;;2.13;;
11042;SDS011;5574;48.786;10.120;2022-11-20T11:56:22;1.57;;;1.47;;
11042;SDS011;5574;48.786;10.120;2022-11-20T11:58:50;1.23;;;1.20;;
11042;SDS011;5574;48.786;10.120;2022-11-20T12:01:21;1.97;;;1.83;;
11042;SDS011;5574;48.786;10.120;2022-11-20T12:03:55;1.93;;;1.63;;
11042;SDS011;5574;48.786;10.120;2022-11-20T12:06:31;1.30;;;1.20;;
11042;SDS011;5574;48.786;10.120;2022-11-20T12:09:01;1.50;;;1.40;;
11042;SDS011;5574;48.786;10.120;2022-11-20T12:11:31;2.33;;;2.10;;
11042;SDS011;5574;48.786;10.120;2022-11-20T12:14:04;1.90;;;1.80;;
11042;SDS011;5574;48.786;10.120;2022-11-20T12:16:38;1.60;;;1.50;;
11042;SDS011;5574;48.786;10.120;2022-11-20T12:19:07;1.20;;;1.20;;
11042;SDS011;5574;48.786;10.120;2022-11-20T12:21:39;0.83;;;0.83;;
11042;SDS011;5574;48.786;10.120;2022-11-20T12:24:24;1.40;;;1.30;;
11042;SDS011;5574;48.786;10.120;2022-11-20T12:27:01;1.87;;;1.40;;
11042;SDS011;5574;48.786;10.120;2022-11-20T12:29:37;1.20;;;1.20;;
11042;SDS011;5574;48.786;10.120;2022-11-20T12:32:23;1.90;;;1.73;;
11042;SDS011;5574;48.786;10.120;2022-11-20T12:35:05;1.70;;;1.60;;
11042;SDS011;5574;48.786;10.120;2022-11-20T12:37:45;0.80;;;0.80;;
11042;SDS011;5574;48.786;10.120;2022-11-20T12:40:27;0.80;;;0.80;;
11042;SDS011;5574;48.786;10.120;2022-11-20T12:42:59;1.40;;;1.30;;
11042;SDS011;5574;48.786;10.120;2022-11-20T12:48:52;0.80;;;0.80;;
11042;SDS011;5574;48.786;10.120;2022-11-20T12:54:39;1.50;;;1.40;;
11042;SDS011;5574;48.786;10.120;2022-11-20T12:57:33;1.00;;;1.00;;
11042;SDS011;5574;48.786;10.120;2022-11-20T13:00:08;1.20;;;1.10;;
11042;SDS011;5574;48.786;10.120;2022-11-20T13:02:41;1.10;;;1.00;;
11042;SDS011;5574;48.786;10.120;2022-11-20T13:05:24;1.47;;;0.90;;
11042;SDS011;5574;48.786;10.120;2022-11-20T13:07:57;1.33;;;1.10;;
11042;SDS011;5574;48.786;10.120;2022-11-20T13:10:30;2.50;;;1.23;;
11042;SDS011;5574;48.786;10.120;2022-11-20T13:13:01;1.30;;;1.20;;
11042;SDS011;5574;48.786;10.120;2022-11-20T13:15:42;1.67;;;1.20;;
11042;SDS011;5574;48.786;10.120;2022-11-20T13:18:16;2.23;;;1.47;;
11042;SDS011;5574;48.786;10.120;2022-11-20T13:20:44;1.23;;;1.03;;
11042;SDS011;5574;48.786;10.120;2022-11-20T13:23:22;1.53;;;1.20;;
11042;SDS011;5574;48.786;10.120;2022-11-20T13:25:52;0.80;;;0.80;;
11042;SDS011;5574;48.786;10.120;2022-11-20T13:28:29;1.70;;;1.40;;
11042;SDS011;5574;48.786;10.120;2022-11-20T13:30:57;1.20;;;1.10;;
11042;SDS011;5574;48.786;10.120;2022-11-20T13:33:26;1.30;;;1.10;;
11042;SDS011;5574;48.786;10.120;2022-11-20T13:35:56;1.13;;;1.10;;
11042;SDS011;5574;48.786;10.120;2022-11-20T13:38:24;1.40;;;1.30;;
11042;SDS011;5574;48.786;10.120;2022-11-20T13:40:53;2.30;;;1.40;;
11042;SDS011;5574;48.786;10.120;2022-11-20T13:43:27;1.77;;;1.33;;
11042;SDS011;5574;48.786;10.120;2022-11-20T13:46:00;1.53;;;1.43;;
11042;SDS011;5574;48.786;10.120;2022-11-20T13:48:29;2.40;;;1.70;;
11042;SDS011;5574;48.786;10.120;2022-11-20T13:51:06;2.23;;;1.80;;
11042;SDS011;5574;48.786;10.120;2022-11-20T13:56:50;3.07;;;1.57;;
11042;SDS011;5574;48.786;10.120;2022-11-20T13:59:31;1.70;;;1.40;;
11042;SDS011;5574;48.786;10.120;2022-11-20T14:02:09;1.40;;;1.30;;
11042;SDS011;5574;48.786;10.120;2022-11-20T14:04:38;1.50;;;1.40;;
11042;SDS011;5574;48.786;10.120;2022-11-20T14:07:10;1.10;;;1.00;;
11042;SDS011;5574;48.786;10.120;2022-11-20T14:09:38;1.87;;;1.13;;
11042;SDS011;5574;48.786;10.120;2022-11-20T14:12:14;1.17;;;1.17;;
11042;SDS011;5574;48.786;10.120;2022-11-20T14:14:47;1.47;;;1.37;;
11042;SDS011;5574;48.786;10.120;2022-11-20T14:17:17;1.57;;;1.37;;
11042;SDS011;5574;48.786;10.120;2022-11-20T14:19:46;2.13;;;1.70;;
11042;SDS011;5574;48.786;10.120;2022-11-20T14:22:17;1.43;;;1.33;;
11042;SDS011;5574;48.786;10.120;2022-11-20T14:24:46;1.73;;;1.47;;
11042;SDS011;5574;48.786;10.120;2022-11-20T14:27:16;1.60;;;1.50;;
11042;SDS011;5574;48.786;10.120;2022-11-20T14:29:44;2.43;;;1.93;;
11042;SDS011;5574;48.786;10.120;2022-11-20T14:32:14;2.47;;;2.00;;
11042;SDS011;5574;48.786;10.120;2022-11-20T14:34:43;1.70;;;1.50;;
11042;SDS011;5574;48.786;10.120;2022-11-20T14:37:12;3.23;;;1.67;;
11042;SDS011;5574;48.786;10.120;2022-11-20T14:39:48;1.70;;;1.50;;
11042;SDS011;5574;48.786;10.120;2022-11-20T14:42:18;2.13;;;1.47;;
11042;SDS011;5574;48.786;10.120;2022-11-20T14:44:46;1.80;;;1.33;;
11042;SDS011;5574;48.786;10.120;2022-11-20T14:47:15;1.70;;;1.10;;
11042;SDS011;5574;48.786;10.120;2022-11-20T14:49:45;1.43;;;1.33;;
11042;SDS011;5574;48.786;10.120;2022-11-20T14:52:14;1.30;;;1.20;;
11042;SDS011;5574;48.786;10.120;2022-11-20T14:54:45;1.47;;;1.07;;
11042;SDS011;5574;48.786;10.120;2022-11-20T14:57:22;1.17;;;1.00;;
11042;SDS011;5574;48.786;10.120;2022-11-20T14:59:50;1.30;;;1.10;;
11042;SDS011;5574;48.786;10.120;2022-11-20T15:02:17;0.70;;;0.70;;
11042;SDS011;5574;48.786;10.120;2022-11-20T15:04:45;1.50;;;1.40;;
11042;SDS011;5574;48.786;10.120;2022-11-20T15:07:22;0.80;;;0.80;;
11042;SDS011;5574;48.786;10.120;2022-11-20T15:09:58;1.53;;;1.10;;
11042;SDS011;5574;48.786;10.120;2022-11-20T15:12:27;1.47;;;1.27;;
11042;SDS011;5574;48.786;10.120;2022-11-20T15:14:55;2.73;;;1.70;;